Time;durP1;ratioP1;P1;durP2;ratioP2;P2;SDS_P1;SDS_P2;PMS_P1;PMS_P2;Temp;Humidity;BMP_temperature;BMP_pressure;BME280_temperature;BME280_humidity;BME280_pressure;Samples;Min_cycle;Max_cycle;Signal;HPM_P1;HPM_P2
2022/09/28 00:00:24;;;;;;;;;;;;;;;19.24;86.36;98762.25;5099193;28;19935;-68
2022/09/28 00:02:50;;;;;;;;;;;;;;;19.21;82.13;98769.97;5099005;28;19961;-68
2022/09/28 00:05:15;;;;;;;;;;;;;;;19.01;83.98;98773.09;5098606;28;20194;-68
2022/09/28 00:07:40;;;;;;;;;;;;;;;18.94;83.96;98770.56;5117174;28;19915;-68
2022/09/28 00:10:07;;;;;;;;;;;;;;;18.85;85.32;98768.50;5099638;28;19912;-68
2022/09/28 00:12:33;;;;;;;;;;;;;;;18.87;86.02;98769.88;5098550;28;20162;-68
2022/09/28 00:14:58;;;;;;;;;;;;;;;18.94;86.18;98767.88;5098029;28;19957;-68
2022/09/28 00:17:25;;;;;;;;;;;;;;;19.00;86.00;98768.78;5101516;28;19920;-68
2022/09/28 00:19:50;;;;;;;;;;;;;;;19.09;86.80;98765.47;5116960;28;19908;-68
2022/09/28 00:22:16;;;;;;;;;;;;;;;19.09;86.68;98757.44;5097906;28;19916;-68
2022/09/28 00:24:41;;;;;;;;;;;;;;;19.06;86.27;98755.22;5098015;28;20284;-68
2022/09/28 00:27:08;;;;;;;;;;;;;;;19.09;86.26;98745.88;5098485;28;19960;-68
2022/09/28 00:29:34;;;;;;;;;;;;;;;19.08;85.55;98747.75;5096616;28;20277;-68
2022/09/28 00:32:02;;;;;;;;;;;;;;;19.05;84.93;98747.41;5097488;28;19975;-68
2022/09/28 00:34:30;;;;;;;;;;;;;;;19.01;84.53;98746.28;5100872;28;20168;-68
2022/09/28 00:36:56;;;;;;;;;;;;;;;19.02;85.18;98748.72;5100924;28;20225;-68
2022/09/28 00:39:21;;;;;;;;;;;;;;;18.89;84.51;98749.00;5100120;28;19908;-68
2022/09/28 00:41:48;;;;;;;;;;;;;;;18.80;85.40;98753.13;5098874;28;20261;-69
2022/09/28 00:44:25;;;;;;;;;;;;;;;18.78;85.36;98755.22;5097548;28;20180;-68
2022/09/28 00:47:02;;;;;;;;;;;;;;;18.79;85.39;98748.81;5097597;28;19918;-69
2022/09/28 00:49:33;;;;;;;;;;;;;;;18.84;84.85;98753.47;5095101;28;19912;-68
2022/09/28 00:52:00;;;;;;;;;;;;;;;18.76;85.23;98742.06;5098445;28;20109;-68
2022/09/28 00:54:25;;;;;;;;;;;;;;;18.78;85.21;98741.81;5097436;28;19912;-68
2022/09/28 00:56:51;;;;;;;;;;;;;;;18.78;84.92;98745.31;5099824;28;19950;-69
2022/09/28 00:59:16;;;;;;;;;;;;;;;18.77;84.49;98742.88;5104209;28;19912;-69
2022/09/28 01:01:41;;;;;;;;;;;;;;;18.75;83.95;98736.94;5103246;28;19939;-68
2022/09/28 01:04:07;;;;;;;;;;;;;;;18.61;84.40;98736.38;5101697;28;19916;-68
2022/09/28 01:06:33;;;;;;;;;;;;;;;18.34;85.89;98729.91;5102131;28;19919;-68
2022/09/28 01:09:01;;;;;;;;;;;;;;;18.10;89.22;98737.16;5100886;28;19923;-68
2022/09/28 01:11:30;;;;;;;;;;;;;;;18.16;88.70;98707.56;5098494;28;20190;-68
2022/09/28 01:13:56;;;;;;;;;;;;;;;18.39;88.80;98741.53;5101398;28;19924;-68
2022/09/28 01:16:39;;;;;;;;;;;;;;;18.38;88.64;98739.91;5101147;28;20268;-68
2022/09/28 01:19:04;;;;;;;;;;;;;;;18.55;86.92;98741.84;5100990;28;19987;-68
2022/09/28 01:21:37;;;;;;;;;;;;;;;18.25;88.38;98742.03;5103876;28;19915;-68
2022/09/28 01:24:08;;;;;;;;;;;;;;;18.39;88.74;98735.34;5102103;28;20222;-68
2022/09/28 01:26:40;;;;;;;;;;;;;;;18.50;88.12;98729.97;5101222;28;20188;-68
2022/09/28 01:29:15;;;;;;;;;;;;;;;18.43;88.39;98731.16;5100846;28;20482;-68
2022/09/28 01:31:43;;;;;;;;;;;;;;;18.52;86.95;98740.44;5100284;28;19919;-68
2022/09/28 01:34:22;;;;;;;;;;;;;;;18.58;84.98;98739.50;5101824;28;19915;-68
2022/09/28 01:36:50;;;;;;;;;;;;;;;18.31;87.12;98738.41;5097498;28;20259;-68
2022/09/28 01:39:19;;;;;;;;;;;;;;;18.33;87.13;98730.94;5101607;28;19935;-68
2022/09/28 01:41:48;;;;;;;;;;;;;;;18.33;86.92;98738.97;5100653;28;19912;-68
2022/09/28 01:44:15;;;;;;;;;;;;;;;18.39;86.27;98738.84;5101532;28;20194;-68
2022/09/28 01:46:43;;;;;;;;;;;;;;;18.32;85.93;98743.53;5100035;28;19931;-68
2022/09/28 01:49:16;;;;;;;;;;;;;;;18.34;85.35;98737.94;5102941;28;19928;-68
2022/09/28 01:51:51;;;;;;;;;;;;;;;18.19;85.54;98744.59;5098239;28;19911;-68
2022/09/28 01:54:37;;;;;;;;;;;;;;;18.18;84.94;98742.16;5099353;28;19958;-68
2022/09/28 01:57:20;;;;;;;;;;;;;;;18.05;85.08;98735.19;5101036;28;19919;-68
2022/09/28 01:59:53;;;;;;;;;;;;;;;17.98;85.39;98736.34;5100842;28;19920;-68
2022/09/28 02:02:24;;;;;;;;;;;;;;;17.91;86.09;98739.16;5100749;28;19934;-68
2022/09/28 02:04:49;;;;;;;;;;;;;;;17.83;85.86;98736.84;5099844;28;19919;-68
2022/09/28 02:07:17;;;;;;;;;;;;;;;17.78;86.33;98729.50;5100785;28;19916;-68
2022/09/28 02:09:48;;;;;;;;;;;;;;;17.86;85.91;98731.00;5099310;28;20076;-68
2022/09/28 02:12:18;;;;;;;;;;;;;;;17.88;85.78;98736.94;5102376;28;20136;-68
2022/09/28 02:14:45;;;;;;;;;;;;;;;17.90;84.37;98742.06;5102968;28;19908;-68
2022/09/28 02:17:11;;;;;;;;;;;;;;;17.72;80.96;98748.34;5100703;28;19916;-68
2022/09/28 02:19:38;;;;;;;;;;;;;;;17.33;83.09;98747.09;5099696;28;19969;-68
2022/09/28 02:22:12;;;;;;;;;;;;;;;17.05;85.45;98753.06;5099742;28;19979;-68
2022/09/28 02:24:37;;;;;;;;;;;;;;;16.93;86.20;98758.38;5096902;28;19966;-68
2022/09/28 02:27:08;;;;;;;;;;;;;;;16.99;86.68;98754.78;5102833;28;19975;-68
2022/09/28 02:29:34;;;;;;;;;;;;;;;16.85;88.43;98756.81;5102573;28;19957;-68
2022/09/28 02:31:59;;;;;;;;;;;;;;;16.97;88.46;98751.53;5099456;28;19911;-68
2022/09/28 02:34:25;;;;;;;;;;;;;;;17.15;87.25;98750.66;5101521;28;20089;-68
2022/09/28 02:36:50;;;;;;;;;;;;;;;17.28;87.07;98755.81;5099291;28;20194;-68
2022/09/28 02:39:16;;;;;;;;;;;;;;;17.29;86.54;98753.94;5102657;28;19909;-68
2022/09/28 02:42:00;;;;;;;;;;;;;;;17.27;86.57;98753.34;5099177;28;20202;-68
2022/09/28 02:44:39;;;;;;;;;;;;;;;17.26;86.73;98765.09;5097838;28;19987;-68
2022/09/28 02:47:23;;;;;;;;;;;;;;;17.15;87.14;98764.84;5097400;28;19912;-68
2022/09/28 02:50:08;;;;;;;;;;;;;;;17.28;86.32;98766.50;5097197;28;19955;-68
2022/09/28 02:52:38;;;;;;;;;;;;;;;17.34;86.09;98759.41;5085739;28;19916;-68
2022/09/28 02:55:12;;;;;;;;;;;;;;;17.26;86.61;98757.06;5101959;28;20245;-69
2022/09/28 02:57:47;;;;;;;;;;;;;;;17.04;87.93;98759.44;5102019;28;19950;-68
2022/09/28 03:00:17;;;;;;;;;;;;;;;17.11;88.11;98750.28;5099383;28;19911;-68
2022/09/28 03:02:42;;;;;;;;;;;;;;;17.25;87.75;98750.91;5100607;28;19916;-68
2022/09/28 03:05:18;;;;;;;;;;;;;;;17.37;86.68;98758.97;5102022;28;19919;-69
2022/09/28 03:08:00;;;;;;;;;;;;;;;17.36;86.66;98754.66;5099674;28;19923;-68
2022/09/28 03:10:25;;;;;;;;;;;;;;;17.17;87.51;98764.59;5097370;28;19935;-68
2022/09/28 03:12:51;;;;;;;;;;;;;;;17.12;88.53;98754.59;5099886;28;20146;-68
2022/09/28 03:15:25;;;;;;;;;;;;;;;17.14;87.91;98755.19;5101752;28;19911;-68
2022/09/28 03:17:51;;;;;;;;;;;;;;;17.10;88.06;98756.69;5101994;28;20079;-68
2022/09/28 03:20:17;;;;;;;;;;;;;;;17.03;87.60;98753.28;5099372;28;19957;-68
2022/09/28 03:22:42;;;;;;;;;;;;;;;16.99;88.75;98757.47;5098274;28;19924;-68
2022/09/28 03:25:07;;;;;;;;;;;;;;;17.27;87.12;98762.19;5098737;28;19915;-68
2022/09/28 03:27:36;;;;;;;;;;;;;;;17.14;87.72;98773.91;5100027;28;19916;-68
2022/09/28 03:30:01;;;;;;;;;;;;;;;17.17;87.43;98769.97;5100739;28;19920;-68
2022/09/28 03:32:26;;;;;;;;;;;;;;;16.84;88.17;98755.19;5098223;28;19953;-68
2022/09/28 03:34:52;;;;;;;;;;;;;;;16.94;88.28;98761.84;5100346;28;19912;-68
2022/09/28 03:37:17;;;;;;;;;;;;;;;16.90;88.02;98759.63;5100603;28;20075;-68
2022/09/28 03:39:42;;;;;;;;;;;;;;;17.00;87.43;98767.13;5099600;28;19912;-68
2022/09/28 03:42:07;;;;;;;;;;;;;;;16.85;88.68;98762.19;5099459;28;20206;-68
2022/09/28 03:44:33;;;;;;;;;;;;;;;17.12;87.07;98759.13;5098468;28;19918;-68
2022/09/28 03:46:58;;;;;;;;;;;;;;;17.06;87.66;98760.84;5099256;28;20223;-68
2022/09/28 03:49:23;;;;;;;;;;;;;;;17.09;87.29;98764.94;5098343;28;19918;-68
2022/09/28 03:51:48;;;;;;;;;;;;;;;17.17;85.99;98770.78;5099031;28;19995;-68
2022/09/28 03:54:14;;;;;;;;;;;;;;;16.81;88.16;98774.38;5100278;28;19912;-68
2022/09/28 03:56:39;;;;;;;;;;;;;;;17.07;87.11;98765.16;5098396;28;20205;-68
2022/09/28 03:59:05;;;;;;;;;;;;;;;17.03;87.57;98763.16;5101903;28;19922;-68
2022/09/28 04:01:30;;;;;;;;;;;;;;;17.06;87.21;98766.22;5099551;28;19990;-68
2022/09/28 04:03:55;;;;;;;;;;;;;;;16.65;89.58;98771.47;5097951;28;19924;-68
2022/09/28 04:06:21;;;;;;;;;;;;;;;16.77;89.85;98759.81;5098523;28;20219;-68
2022/09/28 04:08:46;;;;;;;;;;;;;;;16.41;91.62;98767.81;5098979;28;19923;-68
2022/09/28 04:11:11;;;;;;;;;;;;;;;16.38;92.73;98763.72;5100779;28;19916;-68
2022/09/28 04:13:37;;;;;;;;;;;;;;;16.41;92.36;98770.50;5101446;28;19916;-68
2022/09/28 04:16:03;;;;;;;;;;;;;;;16.71;90.25;98774.09;5098886;28;19965;-69
2022/09/28 04:18:29;;;;;;;;;;;;;;;16.82;89.41;98773.31;5098098;28;19968;-68
2022/09/28 04:21:02;;;;;;;;;;;;;;;16.91;88.56;98787.19;5099163;28;20221;-68
2022/09/28 04:23:27;;;;;;;;;;;;;;;17.07;86.75;98788.41;5098754;28;19931;-68
2022/09/28 04:25:53;;;;;;;;;;;;;;;17.21;85.17;98805.91;5097618;28;20198;-68
2022/09/28 04:31:02;;;;;;;;;;;;;;;16.88;86.32;98803.69;5100454;28;19919;-68
2022/09/28 04:33:28;;;;;;;;;;;;;;;16.58;87.14;98806.25;5105047;28;19916;-68
2022/09/28 04:35:53;;;;;;;;;;;;;;;16.48;88.18;98798.75;5102448;28;19975;-68
2022/09/28 04:38:18;;;;;;;;;;;;;;;16.56;87.37;98787.78;5102050;28;20127;-68
2022/09/28 04:40:44;;;;;;;;;;;;;;;16.49;87.04;98787.03;5102584;28;19919;-68
2022/09/28 04:43:09;;;;;;;;;;;;;;;16.68;85.90;98793.25;5101913;28;20117;-68
2022/09/28 04:45:34;;;;;;;;;;;;;;;16.34;87.85;98802.63;5103319;28;19912;-68
2022/09/28 04:47:59;;;;;;;;;;;;;;;16.58;88.00;98796.38;5103482;28;19911;-68
2022/09/28 04:50:25;;;;;;;;;;;;;;;16.50;88.47;98803.88;5102966;28;19986;-68
2022/09/28 04:52:50;;;;;;;;;;;;;;;16.34;89.83;98807.97;5102507;28;19923;-68
2022/09/28 04:55:15;;;;;;;;;;;;;;;16.38;89.64;98811.00;5100856;28;19912;-68
2022/09/28 04:57:41;;;;;;;;;;;;;;;16.08;89.83;98771.66;5102310;28;19916;-68
2022/09/28 05:00:07;;;;;;;;;;;;;;;16.29;90.46;98815.81;5101375;28;19979;-68
2022/09/28 05:02:32;;;;;;;;;;;;;;;16.44;90.84;98826.97;5101813;28;19916;-68
2022/09/28 05:04:58;;;;;;;;;;;;;;;16.50;90.66;98831.41;5102184;28;19958;-68
2022/09/28 05:07:23;;;;;;;;;;;;;;;16.67;89.83;98842.41;5102214;28;19916;-68
2022/09/28 05:09:49;;;;;;;;;;;;;;;16.71;89.49;98840.91;5120161;28;19915;-68
2022/09/28 05:12:14;;;;;;;;;;;;;;;16.80;88.81;98849.44;5103414;28;20182;-68
2022/09/28 05:14:40;;;;;;;;;;;;;;;16.79;89.40;98851.31;5100158;28;19937;-68
2022/09/28 05:17:06;;;;;;;;;;;;;;;16.70;90.40;98858.00;5101969;28;19950;-68
2022/09/28 05:19:33;;;;;;;;;;;;;;;17.06;90.27;98854.47;5101048;28;19920;-68
2022/09/28 05:22:02;;;;;;;;;;;;;;;17.17;89.84;98859.06;5103955;28;20114;-68
2022/09/28 05:24:28;;;;;;;;;;;;;;;17.30;90.44;98854.56;5102936;28;19915;-68
2022/09/28 05:26:53;;;;;;;;;;;;;;;17.46;89.84;98851.25;5101800;28;19912;-68
2022/09/28 05:29:18;;;;;;;;;;;;;;;17.71;89.05;98845.78;5101073;28;19943;-68
2022/09/28 05:31:43;;;;;;;;;;;;;;;17.61;89.41;98843.59;5101791;28;19919;-68
2022/09/28 05:34:09;;;;;;;;;;;;;;;17.97;88.38;98849.91;5101247;28;19973;-68
2022/09/28 05:36:35;;;;;;;;;;;;;;;18.24;86.96;98853.75;5101576;28;19911;-68
2022/09/28 05:39:02;;;;;;;;;;;;;;;18.66;84.76;98859.81;5101919;28;20113;-68
2022/09/28 05:41:28;;;;;;;;;;;;;;;18.95;83.93;98863.41;5100373;28;19986;-69
2022/09/28 05:43:53;;;;;;;;;;;;;;;19.48;80.86;98859.56;5099081;28;19939;-68
2022/09/28 05:46:20;;;;;;;;;;;;;;;19.72;79.96;98860.28;5101497;28;19920;-68
2022/09/28 05:48:46;;;;;;;;;;;;;;;19.60;79.95;98862.22;5100796;28;20196;-68
2022/09/28 05:51:11;;;;;;;;;;;;;;;20.01;77.60;98861.88;5103623;28;19931;-68
2022/09/28 05:53:36;;;;;;;;;;;;;;;20.15;77.63;98854.31;5103423;28;19957;-68
2022/09/28 05:56:02;;;;;;;;;;;;;;;20.38;75.97;98853.28;5099940;28;19912;-68
2022/09/28 05:58:27;;;;;;;;;;;;;;;20.57;75.20;98856.56;5101254;28;20090;-68
2022/09/28 06:00:55;;;;;;;;;;;;;;;20.63;74.81;98855.56;5100254;28;19912;-69
2022/09/28 06:03:20;;;;;;;;;;;;;;;20.50;75.28;98867.47;5101360;28;19916;-68
2022/09/28 06:05:46;;;;;;;;;;;;;;;20.47;76.07;98867.16;5099836;28;19926;-68
2022/09/28 06:08:11;;;;;;;;;;;;;;;20.52;76.14;98867.25;5101438;28;20129;-69
2022/09/28 06:10:37;;;;;;;;;;;;;;;20.67;74.93;98868.25;5101249;28;19912;-68
2022/09/28 06:13:02;;;;;;;;;;;;;;;21.07;74.05;98861.78;5100001;28;20224;-68
2022/09/28 06:15:28;;;;;;;;;;;;;;;21.14;73.65;98861.59;5103612;28;20113;-68
2022/09/28 06:17:57;;;;;;;;;;;;;;;21.04;73.55;98860.41;5100674;28;19916;-68
2022/09/28 06:20:23;;;;;;;;;;;;;;;21.17;73.47;98859.22;5102846;28;19908;-68
2022/09/28 06:22:52;;;;;;;;;;;;;;;21.47;72.97;98856.06;5101953;28;19991;-69
2022/09/28 06:25:17;;;;;;;;;;;;;;;21.14;74.23;98875.88;5099463;28;19919;-69
2022/09/28 06:27:42;;;;;;;;;;;;;;;21.20;74.01;98868.66;5100184;28;19924;-69
2022/09/28 06:30:08;;;;;;;;;;;;;;;21.32;74.02;98861.28;5099656;28;19916;-68
2022/09/28 06:32:33;;;;;;;;;;;;;;;21.71;72.33;98864.63;5101950;28;19946;-68
2022/09/28 06:34:58;;;;;;;;;;;;;;;21.72;71.94;98866.25;5103047;28;19918;-69
2022/09/28 06:37:24;;;;;;;;;;;;;;;21.76;70.35;98856.59;5099248;28;19977;-68
2022/09/28 06:39:50;;;;;;;;;;;;;;;22.24;66.37;98863.78;5099349;28;20153;-68
2022/09/28 06:42:17;;;;;;;;;;;;;;;22.21;67.36;98869.69;5099972;28;19923;-68
2022/09/28 06:44:43;;;;;;;;;;;;;;;22.36;67.64;98874.38;5101641;28;20173;-68
2022/09/28 06:47:08;;;;;;;;;;;;;;;22.51;67.64;98879.06;5102531;28;19938;-68
2022/09/28 06:49:33;;;;;;;;;;;;;;;22.95;66.37;98895.00;5101735;28;19912;-68
2022/09/28 06:51:58;;;;;;;;;;;;;;;22.86;66.65;98883.88;5101898;28;20194;-68
2022/09/28 06:54:24;;;;;;;;;;;;;;;22.97;66.12;98890.16;5104864;28;20268;-68
2022/09/28 06:56:51;;;;;;;;;;;;;;;23.33;64.13;98891.91;5098982;28;19943;-69
2022/09/28 06:59:16;;;;;;;;;;;;;;;23.15;63.88;98884.28;5115002;28;19919;-69
2022/09/28 07:01:41;;;;;;;;;;;;;;;23.02;64.02;98876.66;5098444;28;19920;-69
2022/09/28 07:04:07;;;;;;;;;;;;;;;22.95;64.34;98886.91;5097061;28;20246;-69
2022/09/28 07:06:32;;;;;;;;;;;;;;;22.80;66.05;98884.91;5097439;28;19912;-69
2022/09/28 07:09:01;;;;;;;;;;;;;;;23.16;63.67;98851.59;5097935;28;20148;-69
2022/09/28 07:11:27;;;;;;;;;;;;;;;23.51;62.01;98872.50;5098200;28;19912;-68
2022/09/28 07:13:53;;;;;;;;;;;;;;;23.74;61.31;98862.28;5098004;28;19916;-68
2022/09/28 07:16:18;;;;;;;;;;;;;;;23.88;60.10;98857.97;5098528;28;19961;-69
2022/09/28 07:18:43;;;;;;;;;;;;;;;23.97;59.14;98853.69;5098253;28;19932;-69
2022/09/28 07:21:09;;;;;;;;;;;;;;;24.26;58.01;98858.53;5097883;28;19916;-69
2022/09/28 07:23:34;;;;;;;;;;;;;;;24.15;58.74;98863.94;5098881;28;19924;-69
2022/09/28 07:26:02;;;;;;;;;;;;;;;24.09;57.58;98865.03;5097246;28;20682;-69
2022/09/28 07:28:29;;;;;;;;;;;;;;;23.61;58.78;98865.50;5097512;28;19951;-68
2022/09/28 07:30:55;;;;;;;;;;;;;;;23.63;58.73;98860.66;5097620;28;19912;-69
2022/09/28 07:33:21;;;;;;;;;;;;;;;23.84;57.85;98867.69;5098693;28;19991;-69
2022/09/28 07:35:51;;;;;;;;;;;;;;;24.28;55.12;98859.09;5097452;28;19919;-68
2022/09/28 07:38:16;;;;;;;;;;;;;;;24.52;54.17;98858.22;5096841;28;19916;-69
2022/09/28 07:43:25;;;;;;;;;;;;;;;24.19;56.49;98862.31;5098407;28;20289;-68
2022/09/28 07:45:51;;;;;;;;;;;;;;;24.01;56.78;98853.94;5097343;28;19920;-69
2022/09/28 07:48:17;;;;;;;;;;;;;;;24.43;54.94;98850.94;5097312;28;19916;-68
2022/09/28 07:50:52;;;;;;;;;;;;;;;24.75;54.23;98847.88;5098362;28;20564;-69
2022/09/28 07:53:21;;;;;;;;;;;;;;;24.92;52.46;98858.38;5098377;28;19975;-69
2022/09/28 07:55:53;;;;;;;;;;;;;;;24.88;54.08;98857.31;5097052;28;20133;-68
2022/09/28 07:58:19;;;;;;;;;;;;;;;25.01;52.84;98865.69;5096981;28;20202;-68
2022/09/28 08:00:46;;;;;;;;;;;;;;;25.29;51.32;98857.97;5097579;28;19912;-68
2022/09/28 08:03:12;;;;;;;;;;;;;;;25.29;52.13;98866.13;5096807;28;20217;-68
2022/09/28 08:05:37;;;;;;;;;;;;;;;25.53;50.20;98863.53;5097038;28;19957;-68
2022/09/28 08:08:03;;;;;;;;;;;;;;;25.38;50.92;98864.44;5102381;28;19931;-68
2022/09/28 08:10:28;;;;;;;;;;;;;;;25.69;49.29;98859.66;5101086;28;19911;-68
2022/09/28 08:12:57;;;;;;;;;;;;;;;25.80;50.19;98857.69;5118066;28;19924;-68
2022/09/28 08:15:23;;;;;;;;;;;;;;;25.77;50.92;98862.56;5101010;28;21108;-68
2022/09/28 08:17:48;;;;;;;;;;;;;;;26.06;49.39;98842.84;5101398;28;20216;-69
2022/09/28 08:23:07;;;;;;;;;;;;;;;25.80;49.53;98855.78;5101931;28;19930;-69
2022/09/28 08:25:35;;;;;;;;;;;;;;;25.74;49.35;98859.63;5101231;28;20250;-69
2022/09/28 08:28:01;;;;;;;;;;;;;;;26.08;48.94;98856.94;5099468;28;20098;-69
2022/09/28 08:30:26;;;;;;;;;;;;;;;26.35;48.28;98856.44;5102106;28;19941;-69
2022/09/28 08:32:51;;;;;;;;;;;;;;;26.30;48.54;98854.56;5100929;28;20438;-68
2022/09/28 08:35:17;;;;;;;;;;;;;;;26.24;49.15;98852.19;5101973;28;19908;-69
2022/09/28 08:37:42;;;;;;;;;;;;;;;26.18;48.10;98850.59;5101428;28;19923;-68
2022/09/28 08:40:15;;;;;;;;;;;;;;;25.96;48.21;98851.84;5116327;28;19911;-68
2022/09/28 08:42:41;;;;;;;;;;;;;;;26.13;47.83;98843.31;5100115;28;19939;-68
2022/09/28 08:45:10;;;;;;;;;;;;;;;26.35;47.04;98845.59;5101608;28;20602;-69
2022/09/28 08:50:30;;;;;;;;;;;;;;;26.20;47.87;98843.78;5100629;28;19973;-68
2022/09/28 08:52:58;;;;;;;;;;;;;;;25.94;49.14;98843.19;5099483;28;19923;-68
2022/09/28 08:55:31;;;;;;;;;;;;;;;25.92;48.21;98848.09;5100773;28;20141;-69
2022/09/28 08:57:56;;;;;;;;;;;;;;;26.03;47.36;98838.78;5101358;28;19946;-68
2022/09/28 09:00:31;;;;;;;;;;;;;;;25.60;47.20;98843.16;5115738;28;20258;-68
2022/09/28 09:02:56;;;;;;;;;;;;;;;25.80;47.85;98838.69;5100447;28;19916;-69
2022/09/28 09:05:34;;;;;;;;;;;;;;;25.81;47.59;98835.69;5098918;28;19958;-68
2022/09/28 09:08:06;;;;;;;;;;;;;;;25.99;47.72;98834.19;5100866;28;19927;-68
2022/09/28 09:10:42;;;;;;;;;;;;;;;26.20;45.70;98830.22;5100589;28;20007;-68
2022/09/28 09:13:26;;;;;;;;;;;;;;;25.82;47.36;98834.59;5099998;28;20496;-69
2022/09/28 09:16:09;;;;;;;;;;;;;;;25.95;46.86;98830.44;5103605;28;20135;-68
2022/09/28 09:18:36;;;;;;;;;;;;;;;25.95;47.26;98830.44;5104185;28;20206;-69
2022/09/28 09:21:08;;;;;;;;;;;;;;;26.05;47.04;98833.09;5104295;28;19934;-69
2022/09/28 09:23:41;;;;;;;;;;;;;;;26.06;45.18;98834.72;5104475;28;19923;-69
2022/09/28 09:26:14;;;;;;;;;;;;;;;25.84;46.56;98837.84;5103950;28;19923;-69
2022/09/28 09:28:48;;;;;;;;;;;;;;;26.21;45.49;98831.84;5104530;28;19915;-69
2022/09/28 09:31:16;;;;;;;;;;;;;;;26.16;46.24;98828.38;5104317;28;19927;-68
2022/09/28 09:33:41;;;;;;;;;;;;;;;26.19;46.87;98831.31;5104789;28;20072;-69
2022/09/28 09:36:06;;;;;;;;;;;;;;;26.15;45.82;98824.03;5103995;28;19912;-68
2022/09/28 09:38:39;;;;;;;;;;;;;;;26.14;45.51;98823.22;5104174;28;19916;-69
2022/09/28 09:41:23;;;;;;;;;;;;;;;26.38;44.08;98824.09;5104181;28;19918;-68
2022/09/28 09:43:48;;;;;;;;;;;;;;;26.30;43.52;98813.03;5104474;28;19928;-68
2022/09/28 09:46:28;;;;;;;;;;;;;;;26.22;43.92;98813.66;5103959;28;19928;-68
2022/09/28 09:48:57;;;;;;;;;;;;;;;26.11;43.98;98818.38;5104072;28;19918;-68
2022/09/28 09:51:41;;;;;;;;;;;;;;;25.76;45.28;98814.84;5103737;28;19916;-69
2022/09/28 09:54:16;;;;;;;;;;;;;;;25.69;42.72;98810.84;5113436;28;20140;-68
2022/09/28 09:56:48;;;;;;;;;;;;;;;25.87;41.02;98806.63;5103577;28;19915;-69
2022/09/28 09:59:17;;;;;;;;;;;;;;;25.81;39.19;98807.78;5103607;28;19916;-69
2022/09/28 10:01:43;;;;;;;;;;;;;;;25.81;39.26;98803.16;5103580;28;20163;-69
2022/09/28 10:04:18;;;;;;;;;;;;;;;25.99;39.44;98801.66;5102508;28;19916;-69
2022/09/28 10:06:43;;;;;;;;;;;;;;;25.85;41.36;98806.13;5103569;28;19921;-69
2022/09/28 10:09:12;;;;;;;;;;;;;;;25.81;42.08;98813.19;5099201;28;19919;-68
2022/09/28 10:11:45;;;;;;;;;;;;;;;26.13;40.16;98818.91;5098841;28;19983;-69
2022/09/28 10:14:15;;;;;;;;;;;;;;;25.98;40.61;98805.44;5098282;28;19970;-69
2022/09/28 10:16:41;;;;;;;;;;;;;;;26.07;41.03;98803.78;5097522;28;19912;-68
2022/09/28 10:19:09;;;;;;;;;;;;;;;26.02;41.37;98795.69;5098101;28;20217;-68
2022/09/28 10:21:36;;;;;;;;;;;;;;;25.84;41.91;98797.16;5098557;28;19919;-69
2022/09/28 10:24:01;;;;;;;;;;;;;;;25.75;42.46;98796.16;5097435;28;19916;-68
2022/09/28 10:26:47;;;;;;;;;;;;;;;25.85;42.71;98787.94;5098635;28;19912;-69
2022/09/28 10:29:14;;;;;;;;;;;;;;;25.79;42.28;98789.06;5095496;28;20101;-69
2022/09/28 10:31:47;;;;;;;;;;;;;;;25.98;41.64;98787.28;5099421;28;19912;-68
2022/09/28 10:34:14;;;;;;;;;;;;;;;25.94;41.35;98780.00;5097302;28;19916;-69
2022/09/28 10:36:47;;;;;;;;;;;;;;;26.07;40.61;98788.31;5096831;28;20118;-68
2022/09/28 10:39:24;;;;;;;;;;;;;;;26.25;39.81;98784.03;5098117;28;19916;-69
2022/09/28 10:41:50;;;;;;;;;;;;;;;26.04;41.06;98783.44;5097907;28;19965;-68
2022/09/28 10:44:17;;;;;;;;;;;;;;;25.93;41.16;98784.59;5096743;28;19983;-69
2022/09/28 10:46:43;;;;;;;;;;;;;;;26.11;42.22;98779.59;5097391;28;19920;-69
2022/09/28 10:49:15;;;;;;;;;;;;;;;26.11;41.41;98772.25;5098003;28;20311;-68
2022/09/28 10:51:40;;;;;;;;;;;;;;;26.14;40.31;98771.69;5096571;28;19949;-69
2022/09/28 10:54:14;;;;;;;;;;;;;;;26.33;39.65;98769.88;5098337;28;20166;-68
2022/09/28 10:56:40;;;;;;;;;;;;;;;26.36;38.95;98760.34;5097133;28;19977;-69
2022/09/28 10:59:23;;;;;;;;;;;;;;;26.30;39.76;98758.75;5095764;28;19916;-68
2022/09/28 11:01:58;;;;;;;;;;;;;;;26.08;40.13;98754.66;5095666;28;19931;-69
2022/09/28 11:04:26;;;;;;;;;;;;;;;26.39;40.46;98747.00;5111517;28;19953;-68
2022/09/28 11:06:52;;;;;;;;;;;;;;;26.28;40.97;98744.66;5096653;28;20241;-68
2022/09/28 11:09:23;;;;;;;;;;;;;;;26.35;39.38;98739.72;5090958;28;19931;-69
2022/09/28 11:11:49;;;;;;;;;;;;;;;26.37;38.88;98737.53;5095846;28;19920;-68
2022/09/28 11:14:26;;;;;;;;;;;;;;;26.40;40.58;98735.06;5095914;28;20217;-68
2022/09/28 11:17:10;;;;;;;;;;;;;;;26.41;41.54;98730.44;5095119;28;19919;-69
2022/09/28 11:19:35;;;;;;;;;;;;;;;26.36;41.21;98734.00;5095627;28;20144;-69
2022/09/28 11:22:01;;;;;;;;;;;;;;;26.40;41.50;98729.63;5097106;28;19919;-68
2022/09/28 11:24:26;;;;;;;;;;;;;;;26.32;40.79;98724.84;5095722;28;19979;-69
2022/09/28 11:26:55;;;;;;;;;;;;;;;26.31;42.11;98725.09;5097332;28;19919;-68
2022/09/28 11:29:25;;;;;;;;;;;;;;;26.50;40.83;98719.75;5096518;28;20015;-68
2022/09/28 11:31:51;;;;;;;;;;;;;;;26.49;40.14;98715.41;5095470;28;19949;-69
2022/09/28 11:34:25;;;;;;;;;;;;;;;26.53;39.49;98708.31;5095168;28;20229;-69
2022/09/28 11:36:56;;;;;;;;;;;;;;;26.52;39.30;98706.69;5097420;28;20233;-68
2022/09/28 11:39:38;;;;;;;;;;;;;;;26.44;39.42;98701.91;5096538;28;19927;-68
2022/09/28 11:42:03;;;;;;;;;;;;;;;26.26;40.54;98698.03;5097073;28;20311;-68
2022/09/28 11:44:45;;;;;;;;;;;;;;;26.42;41.08;98685.91;5096243;28;19916;-68
2022/09/28 11:47:25;;;;;;;;;;;;;;;26.32;37.82;98695.00;5095590;28;20249;-68
2022/09/28 11:49:56;;;;;;;;;;;;;;;26.16;39.01;98696.25;5095889;28;20043;-68
2022/09/28 11:52:26;;;;;;;;;;;;;;;26.18;39.07;98687.81;5096037;28;19920;-68
2022/09/28 11:54:58;;;;;;;;;;;;;;;26.17;40.10;98702.47;5096883;28;19920;-69
2022/09/28 11:57:26;;;;;;;;;;;;;;;26.05;38.98;98700.16;5096715;28;20323;-68
2022/09/28 11:59:51;;;;;;;;;;;;;;;26.30;37.40;98690.91;5095432;28;19987;-68
2022/09/28 12:02:38;;;;;;;;;;;;;;;26.05;38.42;98686.59;5095942;28;20331;-69
2022/09/28 12:05:11;;;;;;;;;;;;;;;26.03;39.79;98686.88;5094233;28;19918;-68
2022/09/28 12:07:57;;;;;;;;;;;;;;;26.11;39.23;98682.72;5095562;28;19983;-68
2022/09/28 12:10:52;;;;;;;;;;;;;;;26.36;38.96;98682.44;5089871;28;19958;-69
2022/09/28 12:13:25;;;;;;;;;;;;;;;26.28;38.42;98679.53;5050889;28;20165;-68
2022/09/28 12:15:50;;;;;;;;;;;;;;;26.11;39.36;98679.22;5094102;28;19919;-68
2022/09/28 12:18:28;;;;;;;;;;;;;;;25.97;37.95;98668.22;5095703;28;19915;-68
2022/09/28 12:21:03;;;;;;;;;;;;;;;26.14;38.01;98670.50;5094912;28;19912;-69
2022/09/28 12:23:32;;;;;;;;;;;;;;;26.06;37.17;98667.31;5096329;28;19955;-69
2022/09/28 12:25:59;;;;;;;;;;;;;;;26.03;36.84;98667.09;5095190;28;19912;-68
2022/09/28 12:28:34;;;;;;;;;;;;;;;26.32;35.19;98669.72;5097047;28;19916;-68
2022/09/28 12:31:06;;;;;;;;;;;;;;;26.27;35.97;98673.31;5096269;28;19912;-69
2022/09/28 12:33:31;;;;;;;;;;;;;;;26.38;35.74;98663.16;5095070;28;20174;-69
2022/09/28 12:36:19;;;;;;;;;;;;;;;26.32;35.61;98662.41;5095740;28;19920;-69
2022/09/28 12:38:53;;;;;;;;;;;;;;;26.29;36.52;98664.88;5094542;28;20240;-69
2022/09/28 12:41:22;;;;;;;;;;;;;;;26.38;35.26;98661.25;5095747;28;19924;-69
2022/09/28 12:44:02;;;;;;;;;;;;;;;26.20;35.79;98658.47;5110169;28;19970;-69
2022/09/28 12:46:31;;;;;;;;;;;;;;;26.30;35.28;98664.59;5094847;28;19931;-69
2022/09/28 12:49:12;;;;;;;;;;;;;;;26.22;35.07;98654.38;5110843;28;19995;-69
2022/09/28 12:51:46;;;;;;;;;;;;;;;26.35;34.36;98656.41;5095127;28;19912;-69
2022/09/28 12:54:17;;;;;;;;;;;;;;;26.44;34.79;98658.47;5096968;28;19930;-68
2022/09/28 12:56:49;;;;;;;;;;;;;;;26.31;35.99;98651.81;5098709;28;19920;-68
2022/09/28 12:59:15;;;;;;;;;;;;;;;26.34;34.79;98654.78;5114951;28;20251;-68
2022/09/28 13:01:43;;;;;;;;;;;;;;;26.51;33.83;98654.28;5098756;28;19920;-69
2022/09/28 13:04:11;;;;;;;;;;;;;;;26.33;34.91;98650.47;5096990;28;19923;-69
2022/09/28 13:06:36;;;;;;;;;;;;;;;26.27;34.23;98654.31;5100063;28;19966;-69